createdAt,value
2018-06-10T00:01:06.136Z,16.27
2018-06-10T00:03:35.044Z,16.20
2018-06-10T00:06:03.995Z,16.13
2018-06-10T00:08:32.886Z,16.11
2018-06-10T00:11:01.546Z,15.95
2018-06-10T00:13:30.210Z,15.80
2018-06-10T00:15:58.898Z,15.70
2018-06-10T00:18:29.345Z,15.67
2018-06-10T00:20:59.700Z,15.66
2018-06-10T00:23:29.246Z,15.66
2018-06-10T00:25:58.125Z,16.08
2018-06-10T00:28:32.626Z,16.46
2018-06-10T00:31:01.526Z,16.34
2018-06-10T00:33:30.482Z,16.26
2018-06-10T00:35:59.384Z,16.09
2018-06-10T00:38:28.323Z,15.98
2018-06-10T00:40:57.229Z,15.89
2018-06-10T00:43:26.135Z,15.89
2018-06-10T00:45:55.048Z,15.66
2018-06-10T00:48:26.449Z,15.40
2018-06-10T00:50:55.370Z,15.17
2018-06-10T00:53:24.290Z,15.33
2018-06-10T00:55:53.222Z,15.28
2018-06-10T00:58:22.137Z,15.18
2018-06-10T01:00:51.055Z,15.10
2018-06-10T01:03:20.591Z,15.05
2018-06-10T01:05:49.512Z,15.03
2018-06-10T01:08:18.420Z,15.04
2018-06-10T01:10:47.382Z,15.05
2018-06-10T01:13:16.487Z,15.09
2018-06-10T01:15:45.417Z,15.07
2018-06-10T01:18:14.442Z,15.07
2018-06-10T01:20:43.136Z,15.08
2018-06-10T01:23:11.798Z,15.12
2018-06-10T01:25:40.430Z,15.12
2018-06-10T01:28:09.100Z,15.19
2018-06-10T01:30:37.707Z,15.18
2018-06-10T01:33:06.312Z,15.15
2018-06-10T01:35:34.980Z,15.13
2018-06-10T01:38:03.579Z,15.18
2018-06-10T01:40:32.187Z,15.15
2018-06-10T01:43:00.774Z,15.17
2018-06-10T01:45:29.375Z,15.17
2018-06-10T01:47:57.965Z,15.19
2018-06-10T01:50:26.563Z,15.22
2018-06-10T01:52:55.180Z,15.18
2018-06-10T01:55:23.812Z,15.19
2018-06-10T01:57:52.404Z,15.21
2018-06-10T02:00:21.168Z,15.15
2018-06-10T02:02:50.043Z,15.07
2018-06-10T02:05:18.922Z,15.01
2018-06-10T02:07:47.815Z,14.91
2018-06-10T02:10:16.770Z,14.82
2018-06-10T02:12:45.643Z,14.70
2018-06-10T02:15:14.575Z,14.60
2018-06-10T02:17:43.487Z,14.58
2018-06-10T02:20:12.442Z,14.51
2018-06-10T02:22:41.131Z,14.44
2018-06-10T02:25:09.818Z,14.33
2018-06-10T02:27:38.435Z,14.25
2018-06-10T02:30:07.113Z,14.32
2018-06-10T02:32:38.157Z,14.28
2018-06-10T02:35:06.896Z,14.23
2018-06-10T02:37:35.538Z,14.19
2018-06-10T02:40:04.289Z,14.15
2018-06-10T02:42:32.929Z,14.11
2018-06-10T02:45:01.543Z,14.10
2018-06-10T02:47:30.166Z,14.17
2018-06-10T02:49:58.768Z,14.12
2018-06-10T02:52:27.363Z,14.11
2018-06-10T02:54:56.224Z,14.09
2018-06-10T02:57:24.863Z,14.15
2018-06-10T02:59:53.464Z,14.34
2018-06-10T03:02:22.066Z,14.29
2018-06-10T03:04:50.711Z,14.29
2018-06-10T03:07:19.331Z,14.31
2018-06-10T03:09:47.951Z,14.30
2018-06-10T03:12:16.595Z,14.30
2018-06-10T03:14:45.211Z,14.27
2018-06-10T03:17:13.882Z,14.30
2018-06-10T03:19:42.538Z,14.43
2018-06-10T03:22:11.183Z,14.45
2018-06-10T03:24:39.863Z,14.42
2018-06-10T03:27:08.520Z,14.50
2018-06-10T03:29:37.184Z,14.49
2018-06-10T03:32:05.907Z,14.44
2018-06-10T03:34:34.516Z,14.42
2018-06-10T03:37:03.118Z,14.35
2018-06-10T03:39:31.831Z,14.21
2018-06-10T03:42:00.683Z,14.09
2018-06-10T03:44:29.539Z,14.06
2018-06-10T03:46:58.438Z,14.05
2018-06-10T03:49:27.228Z,14.02
2018-06-10T03:51:55.870Z,13.97
2018-06-10T03:54:24.606Z,13.96
2018-06-10T03:56:53.296Z,14.01
2018-06-10T03:59:21.981Z,14.17
2018-06-10T04:01:50.663Z,14.39
2018-06-10T04:04:19.335Z,14.62
2018-06-10T04:06:47.993Z,14.95
2018-06-10T04:09:16.743Z,15.16
2018-06-10T04:11:45.743Z,15.29
2018-06-10T04:14:14.677Z,15.40
2018-06-10T04:16:43.596Z,15.59
2018-06-10T04:19:12.571Z,15.76
2018-06-10T04:21:41.266Z,15.85
2018-06-10T04:24:10.019Z,15.91
2018-06-10T04:26:38.650Z,15.73
2018-06-10T04:29:07.323Z,15.83
2018-06-10T04:31:36.003Z,15.92
2018-06-10T04:34:04.740Z,15.97
2018-06-10T04:36:33.411Z,15.90
2018-06-10T04:39:02.147Z,16.14
2018-06-10T04:41:30.803Z,16.45
2018-06-10T04:43:59.485Z,16.83
2018-06-10T04:46:28.091Z,16.86
2018-06-10T04:48:56.886Z,17.09
2018-06-10T04:51:25.788Z,17.33
2018-06-10T04:53:54.678Z,17.80
2018-06-10T04:56:23.670Z,17.70
2018-06-10T04:58:52.546Z,17.79
2018-06-10T05:01:21.476Z,18.33
2018-06-10T05:03:50.415Z,18.40
2018-06-10T05:06:19.339Z,18.45
2018-06-10T05:08:48.240Z,18.85
2018-06-10T05:11:16.835Z,19.39
2018-06-10T05:13:45.512Z,19.70
2018-06-10T05:16:14.149Z,19.98
2018-06-10T05:18:42.885Z,20.37
2018-06-10T05:21:11.625Z,20.36
2018-06-10T05:23:40.051Z,20.23
2018-06-10T05:26:08.665Z,20.18
2018-06-10T05:28:37.518Z,20.29
2018-06-10T05:31:06.489Z,20.01
2018-06-10T05:33:35.493Z,19.77
2018-06-10T05:36:04.401Z,20.19
2018-06-10T05:38:33.273Z,19.60
2018-06-10T05:41:01.931Z,19.43
2018-06-10T05:43:30.403Z,19.54
2018-06-10T05:45:59.033Z,19.87
2018-06-10T05:48:27.695Z,19.76
2018-06-10T05:50:56.621Z,19.90
2018-06-10T05:53:25.586Z,20.00
2018-06-10T05:55:54.809Z,20.61
2018-06-10T05:58:23.526Z,20.85
2018-06-10T06:00:52.109Z,21.22
2018-06-10T06:03:20.941Z,21.59
2018-06-10T06:05:49.573Z,21.73
2018-06-10T06:08:18.323Z,22.10
2018-06-10T06:10:47.259Z,22.55
2018-06-10T06:13:16.186Z,22.53
2018-06-10T06:15:45.084Z,22.83
2018-06-10T06:18:13.933Z,23.08
2018-06-10T06:20:42.592Z,23.24
2018-06-10T06:23:11.221Z,23.48
2018-06-10T06:25:39.896Z,23.47
2018-06-10T06:28:08.551Z,23.82
2018-06-10T06:30:37.191Z,23.99
2018-06-10T06:33:05.776Z,24.34
2018-06-10T06:35:34.396Z,24.47
2018-06-10T06:38:03.023Z,24.41
2018-06-10T06:40:31.685Z,24.95
2018-06-10T06:43:00.355Z,24.99
2018-06-10T06:45:28.926Z,24.80
2018-06-10T06:47:57.593Z,25.22
2018-06-10T06:50:26.239Z,25.21
2018-06-10T06:52:55.011Z,25.34
2018-06-10T06:55:23.657Z,25.59
2018-06-10T06:57:52.386Z,25.91
2018-06-10T07:00:20.952Z,26.25
2018-06-10T07:02:50.340Z,26.17
2018-06-10T07:05:19.037Z,26.35
2018-06-10T07:07:47.784Z,26.35
2018-06-10T07:10:16.679Z,25.52
2018-06-10T07:12:45.578Z,25.74
2018-06-10T07:15:14.531Z,25.57
2018-06-10T07:17:43.465Z,25.40
2018-06-10T07:20:12.174Z,25.45
2018-06-10T07:22:40.831Z,25.52
2018-06-10T07:25:09.491Z,25.81
2018-06-10T07:27:38.570Z,25.96
2018-06-10T07:30:07.501Z,26.15
2018-06-10T07:32:36.396Z,26.71
2018-06-10T07:35:05.424Z,26.57
2018-06-10T07:37:34.400Z,26.54
2018-06-10T07:40:03.036Z,26.43
2018-06-10T07:42:31.698Z,26.79
2018-06-10T07:45:00.263Z,26.36
2018-06-10T07:47:28.816Z,26.11
2018-06-10T07:49:57.386Z,26.25
2018-06-10T07:52:25.938Z,26.27
2018-06-10T07:54:54.316Z,26.75
2018-06-10T07:57:22.957Z,26.81
2018-06-10T07:59:51.775Z,26.85
2018-06-10T08:02:21.349Z,26.89
2018-06-10T08:04:50.183Z,26.80
2018-06-10T08:07:19.008Z,27.09
2018-06-10T08:09:47.831Z,27.36
2018-06-10T08:12:16.658Z,27.74
2018-06-10T08:14:45.465Z,28.10
2018-06-10T08:17:14.275Z,28.04
2018-06-10T08:19:42.836Z,28.43
2018-06-10T08:22:11.402Z,28.30
2018-06-10T08:24:39.951Z,27.97
2018-06-10T08:27:08.614Z,28.34
2018-06-10T08:29:37.415Z,28.75
2018-06-10T08:32:06.264Z,28.64
2018-06-10T08:34:35.083Z,29.22
2018-06-10T08:37:03.858Z,28.85
2018-06-10T08:39:32.628Z,28.34
2018-06-10T08:42:01.429Z,28.54
2018-06-10T08:44:29.984Z,28.40
2018-06-10T08:46:58.692Z,28.19
2018-06-10T08:49:27.531Z,28.29
2018-06-10T08:51:56.406Z,28.85
2018-06-10T08:54:25.223Z,28.55
2018-06-10T08:56:54.050Z,28.71
2018-06-10T08:59:22.955Z,28.68
2018-06-10T09:01:51.755Z,28.78
2018-06-10T09:04:20.591Z,29.29
2018-06-10T09:06:50.571Z,29.66
2018-06-10T09:09:19.498Z,29.54
2018-06-10T09:11:48.496Z,29.70
2018-06-10T09:14:17.512Z,30.25
2018-06-10T09:16:46.412Z,30.44
2018-06-10T09:19:15.082Z,30.54
2018-06-10T09:21:44.276Z,30.81
2018-06-10T09:24:12.897Z,30.92
2018-06-10T09:26:41.514Z,30.96
2018-06-10T09:29:10.394Z,30.55
2018-06-10T09:31:39.291Z,30.99
2018-06-10T09:34:08.235Z,30.84
2018-06-10T09:36:37.099Z,32.09
2018-06-10T09:39:07.919Z,32.13
2018-06-10T09:41:36.526Z,31.93
2018-06-10T09:44:05.149Z,32.16
2018-06-10T09:46:33.799Z,31.95
2018-06-10T09:49:02.359Z,32.16
2018-06-10T09:51:30.939Z,31.94
2018-06-10T09:53:59.531Z,32.08
2018-06-10T09:56:28.323Z,31.96
2018-06-10T09:58:57.299Z,32.12
2018-06-10T10:01:26.259Z,31.88
2018-06-10T10:03:55.349Z,32.06
2018-06-10T10:06:24.296Z,32.20
2018-06-10T10:08:53.737Z,32.28
2018-06-10T10:11:22.626Z,33.24
2018-06-10T10:13:51.576Z,33.22
2018-06-10T10:16:20.484Z,32.73
2018-06-10T10:18:49.211Z,32.56
2018-06-10T10:21:17.954Z,32.74
2018-06-10T10:23:46.666Z,32.94
2018-06-10T10:26:15.356Z,32.57
2018-06-10T10:28:44.806Z,32.99
2018-06-10T10:31:13.553Z,32.98
2018-06-10T10:33:42.224Z,33.16
2018-06-10T10:36:11.024Z,33.71
2018-06-10T10:38:39.925Z,33.63
2018-06-10T10:41:08.999Z,33.02
2018-06-10T10:43:37.931Z,33.38
2018-06-10T10:46:07.056Z,33.56
2018-06-10T10:48:36.299Z,33.52
2018-06-10T10:51:05.319Z,33.20
2018-06-10T10:53:35.031Z,33.72
2018-06-10T10:56:03.848Z,33.48
2018-06-10T10:58:32.507Z,33.56
2018-06-10T11:01:01.221Z,33.91
2018-06-10T11:03:29.996Z,34.26
2018-06-10T11:05:58.648Z,34.24
2018-06-10T11:08:27.235Z,34.37
2018-06-10T11:10:55.884Z,34.44
2018-06-10T11:13:24.516Z,34.22
2018-06-10T11:15:53.163Z,34.82
2018-06-10T11:18:21.789Z,34.25
2018-06-10T11:20:50.408Z,34.66
2018-06-10T11:23:19.003Z,34.47
2018-06-10T11:25:47.737Z,34.54
2018-06-10T11:28:16.678Z,34.95
2018-06-10T11:30:45.844Z,34.78
2018-06-10T11:33:14.747Z,34.81
2018-06-10T11:35:44.025Z,34.78
2018-06-10T11:38:12.603Z,35.12
2018-06-10T11:40:41.170Z,34.60
2018-06-10T11:43:09.568Z,34.90
2018-06-10T11:45:38.408Z,35.03
2018-06-10T11:48:07.328Z,35.22
2018-06-10T11:50:36.259Z,34.76
2018-06-10T11:53:05.128Z,35.02
2018-06-10T11:55:33.945Z,35.46
2018-06-10T11:58:03.435Z,35.17
2018-06-10T12:00:32.362Z,35.04
2018-06-10T12:03:01.292Z,34.81
2018-06-10T12:05:30.188Z,34.35
2018-06-10T12:07:59.095Z,34.65
2018-06-10T12:10:28.052Z,34.74
2018-06-10T12:12:58.020Z,34.95
2018-06-10T12:15:27.096Z,35.04
2018-06-10T12:17:55.895Z,35.09
2018-06-10T12:20:24.772Z,35.24
2018-06-10T12:22:53.485Z,34.99
2018-06-10T12:25:22.015Z,34.79
2018-06-10T12:27:50.610Z,35.06
2018-06-10T12:30:19.232Z,35.42
2018-06-10T12:32:47.872Z,35.35
2018-06-10T12:35:16.754Z,36.48
2018-06-10T12:37:45.614Z,36.13
2018-06-10T12:40:14.554Z,36.27
2018-06-10T12:42:43.486Z,36.23
2018-06-10T12:45:12.385Z,35.98
2018-06-10T12:47:41.357Z,36.44
2018-06-10T12:50:10.218Z,36.18
2018-06-10T12:52:39.097Z,36.57
2018-06-10T12:55:07.979Z,36.91
2018-06-10T12:57:36.626Z,36.12
2018-06-10T13:00:06.264Z,36.07
2018-06-10T13:02:34.964Z,36.33
2018-06-10T13:05:03.604Z,36.34
2018-06-10T13:07:32.236Z,36.27
2018-06-10T13:10:00.839Z,36.22
2018-06-10T13:12:29.431Z,36.65
2018-06-10T13:14:58.441Z,36.16
2018-06-10T13:17:27.156Z,36.40
2018-06-10T13:19:55.914Z,36.70
2018-06-10T13:22:24.613Z,37.29
2018-06-10T13:24:53.419Z,37.26
2018-06-10T13:27:22.331Z,37.04
2018-06-10T13:29:52.304Z,37.77
2018-06-10T13:32:21.233Z,37.61
2018-06-10T13:34:50.099Z,37.35
2018-06-10T13:37:19.080Z,37.29
2018-06-10T13:39:48.084Z,36.98
2018-06-10T13:42:16.926Z,36.62
2018-06-10T13:44:45.758Z,36.66
2018-06-10T13:47:14.405Z,36.92
2018-06-10T13:49:43.051Z,36.94
2018-06-10T13:52:11.684Z,37.29
2018-06-10T13:54:40.287Z,37.52
2018-06-10T13:57:09.169Z,37.70
2018-06-10T13:59:38.027Z,37.26
2018-06-10T14:02:07.464Z,37.27
2018-06-10T14:04:36.051Z,36.90
2018-06-10T14:07:04.698Z,36.15
2018-06-10T14:09:33.349Z,36.38
2018-06-10T14:12:02.099Z,36.84
2018-06-10T14:14:30.749Z,36.34
2018-06-10T14:16:59.379Z,35.94
2018-06-10T14:19:28.339Z,35.59
2018-06-10T14:21:57.361Z,35.59
2018-06-10T14:24:27.696Z,35.58
2018-06-10T14:26:58.482Z,35.24
2018-06-10T14:29:27.183Z,35.25
2018-06-10T14:31:55.841Z,35.09
2018-06-10T14:34:24.575Z,35.23
2018-06-10T14:36:53.244Z,35.66
2018-06-10T14:39:22.664Z,36.26
2018-06-10T14:41:51.139Z,35.55
2018-06-10T14:44:20.037Z,35.09
2018-06-10T14:46:48.711Z,35.56
2018-06-10T14:49:17.602Z,34.93
2018-06-10T14:51:46.543Z,35.33
2018-06-10T14:54:15.503Z,35.55
2018-06-10T14:56:45.063Z,35.48
2018-06-10T14:59:14.014Z,35.86
2018-06-10T15:01:42.979Z,36.25
2018-06-10T15:04:11.891Z,36.62
2018-06-10T15:06:41.694Z,36.59
2018-06-10T15:09:10.632Z,37.04
2018-06-10T15:11:40.229Z,37.23
2018-06-10T15:14:09.559Z,36.16
2018-06-10T15:16:38.554Z,36.43
2018-06-10T15:19:07.419Z,36.36
2018-06-10T15:21:36.771Z,36.03
2018-06-10T15:24:06.474Z,35.97
2018-06-10T15:26:35.424Z,35.29
2018-06-10T15:29:05.508Z,35.03
2018-06-10T15:31:34.959Z,34.94
2018-06-10T15:34:04.159Z,34.76
2018-06-10T15:36:32.879Z,35.04
2018-06-10T15:39:01.571Z,35.40
2018-06-10T15:41:30.217Z,35.72
2018-06-10T15:43:58.823Z,35.84
2018-06-10T15:46:27.484Z,35.32
2018-06-10T15:48:56.111Z,35.74
2018-06-10T15:51:24.834Z,35.78
2018-06-10T15:53:53.504Z,35.32
2018-06-10T15:56:22.411Z,35.35
2018-06-10T15:58:51.187Z,35.33
2018-06-10T16:01:20.059Z,35.12
2018-06-10T16:03:49.179Z,34.42
2018-06-10T16:06:18.035Z,34.23
2018-06-10T16:08:47.324Z,34.16
2018-06-10T16:11:16.051Z,33.69
2018-06-10T16:13:44.706Z,33.67
2018-06-10T16:16:13.409Z,33.37
2018-06-10T16:18:43.583Z,33.54
2018-06-10T16:21:12.361Z,33.58
2018-06-10T16:23:41.336Z,33.63
2018-06-10T16:26:10.338Z,33.92
2018-06-10T16:28:39.394Z,33.81
2018-06-10T16:31:08.403Z,33.73
2018-06-10T16:33:41.407Z,33.66
2018-06-10T16:36:10.129Z,33.31
2018-06-10T16:38:38.774Z,33.14
2018-06-10T16:41:07.507Z,32.73
2018-06-10T16:43:36.171Z,32.80
2018-06-10T16:46:04.904Z,32.40
2018-06-10T16:48:33.549Z,32.25
2018-06-10T16:51:02.323Z,32.22
2018-06-10T16:53:30.979Z,32.40
2018-06-10T16:56:00.036Z,32.34
2018-06-10T16:58:28.681Z,32.24
2018-06-10T17:00:57.371Z,31.98
2018-06-10T17:03:26.236Z,31.81
2018-06-10T17:05:55.180Z,31.77
2018-06-10T17:08:24.082Z,31.50
2018-06-10T17:10:52.998Z,31.00
2018-06-10T17:13:21.809Z,30.48
2018-06-10T17:15:50.728Z,30.00
2018-06-10T17:18:19.554Z,29.52
2018-06-10T17:20:48.265Z,29.08
2018-06-10T17:23:16.988Z,28.71
2018-06-10T17:25:45.701Z,28.48
2018-06-10T17:28:15.021Z,28.24
2018-06-10T17:30:43.711Z,28.18
2018-06-10T17:33:12.376Z,28.29
2018-06-10T17:35:41.888Z,28.29
2018-06-10T17:38:14.071Z,28.33
2018-06-10T17:40:43.631Z,28.44
2018-06-10T17:43:12.640Z,28.32
2018-06-10T17:45:41.653Z,28.23
2018-06-10T17:48:10.630Z,28.06
2018-06-10T17:50:39.615Z,28.15
2018-06-10T17:53:08.596Z,28.06
2018-06-10T17:55:37.468Z,27.94
2018-06-10T17:58:22.278Z,27.78
2018-06-10T18:00:51.308Z,27.52
2018-06-10T18:03:20.323Z,27.33
2018-06-10T18:05:49.283Z,27.19
2018-06-10T18:08:18.328Z,27.08
2018-06-10T18:10:47.386Z,26.95
2018-06-10T18:13:17.263Z,26.80
2018-06-10T18:15:46.148Z,26.73
2018-06-10T18:18:14.939Z,26.68
2018-06-10T18:20:44.446Z,26.82
2018-06-10T18:23:13.185Z,26.68
2018-06-10T18:25:42.089Z,26.62
2018-06-10T18:28:11.211Z,26.67
2018-06-10T18:30:40.293Z,26.36
2018-06-10T18:33:10.045Z,26.21
2018-06-10T18:35:38.723Z,26.10
2018-06-10T18:38:07.483Z,25.94
2018-06-10T18:40:36.235Z,25.79
2018-06-10T18:43:04.883Z,25.96
2018-06-10T18:45:34.326Z,26.08
2018-06-10T18:48:03.404Z,26.18
2018-06-10T18:50:32.084Z,25.93
2018-06-10T18:53:00.715Z,25.70
2018-06-10T18:55:30.078Z,25.50
2018-06-10T18:57:59.023Z,25.39
2018-06-10T19:00:27.975Z,25.35
2018-06-10T19:02:57.053Z,25.16
2018-06-10T19:05:25.965Z,24.99
2018-06-10T19:07:54.589Z,24.87
2018-06-10T19:10:23.359Z,24.74
2018-06-10T19:12:52.014Z,24.56
2018-06-10T19:15:20.776Z,24.44
2018-06-10T19:17:49.723Z,24.36
2018-06-10T19:20:19.436Z,24.30
2018-06-10T19:22:49.681Z,24.20
2018-06-10T19:25:19.493Z,24.13
2018-06-10T19:27:48.189Z,24.07
2018-06-10T19:30:16.976Z,24.17
2018-06-10T19:32:45.716Z,24.29
2018-06-10T19:35:14.397Z,24.14
2018-06-10T19:37:43.556Z,24.29
2018-06-10T19:40:12.559Z,24.37
2018-06-10T19:42:41.869Z,24.37
2018-06-10T19:45:10.960Z,24.34
2018-06-10T19:47:39.976Z,24.50
2018-06-10T19:50:09.724Z,24.60
2018-06-10T19:52:38.788Z,24.45
2018-06-10T19:55:07.751Z,24.29
2018-06-10T19:57:36.736Z,24.64
2018-06-10T20:00:05.923Z,24.68
2018-06-10T20:02:34.586Z,24.51
2018-06-10T20:05:03.403Z,24.29
2018-06-10T20:07:32.176Z,24.13
2018-06-10T20:10:00.844Z,23.89
2018-06-10T20:12:30.452Z,23.62
2018-06-10T20:14:59.533Z,23.41
2018-06-10T20:17:28.364Z,23.16
2018-06-10T20:19:57.361Z,22.85
2018-06-10T20:22:26.380Z,22.78
2018-06-10T20:24:56.666Z,22.66
2018-06-10T20:27:25.733Z,22.60
2018-06-10T20:29:55.472Z,22.36
2018-06-10T20:32:24.509Z,22.00
2018-06-10T20:34:53.596Z,21.78
2018-06-10T20:37:22.598Z,21.69
2018-06-10T20:39:52.521Z,21.73
2018-06-10T20:42:21.206Z,21.77
2018-06-10T20:44:49.978Z,21.78
2018-06-10T20:47:18.711Z,21.73
2018-06-10T20:49:48.050Z,21.89
2018-06-10T20:52:17.086Z,22.14
2018-06-10T20:54:45.966Z,21.85
2018-06-10T20:57:14.884Z,21.71
2018-06-10T20:59:43.796Z,21.63
2018-06-10T21:02:13.349Z,21.53
2018-06-10T21:04:43.083Z,21.45
2018-06-10T21:07:12.767Z,21.35
2018-06-10T21:09:42.282Z,21.25
2018-06-10T21:12:11.764Z,21.21
2018-06-10T21:14:40.703Z,21.13
2018-06-10T21:17:10.900Z,21.09
2018-06-10T21:19:39.699Z,21.03
2018-06-10T21:22:08.373Z,21.03
2018-06-10T21:24:36.964Z,20.97
2018-06-10T21:27:06.265Z,20.87
2018-06-10T21:29:35.021Z,21.22
2018-06-10T21:32:49.465Z,21.27
2018-06-10T21:35:25.576Z,21.15
2018-06-10T21:37:56.291Z,21.24
2018-06-10T21:40:26.851Z,21.09
2018-06-10T21:42:55.519Z,21.30
2018-06-10T21:45:24.151Z,21.16
2018-06-10T21:47:52.824Z,21.01
2018-06-10T21:50:21.625Z,20.87
2018-06-10T21:52:50.547Z,20.78
2018-06-10T21:55:19.398Z,20.76
2018-06-10T21:57:48.377Z,20.65
2018-06-10T22:00:26.391Z,20.52
2018-06-10T22:02:55.063Z,20.34
2018-06-10T22:05:23.823Z,20.23
2018-06-10T22:07:52.471Z,20.13
2018-06-10T22:10:22.328Z,20.02
2018-06-10T22:12:51.235Z,20.01
2018-06-10T22:15:20.081Z,19.98
2018-06-10T22:17:50.041Z,19.97
2018-06-10T22:20:19.113Z,19.92
2018-06-10T22:22:48.018Z,20.03
2018-06-10T22:25:16.939Z,20.19
2018-06-10T22:27:45.847Z,20.36
2018-06-10T22:30:14.835Z,20.25
2018-06-10T22:32:43.573Z,20.18
2018-06-10T22:35:12.231Z,20.30
2018-06-10T22:37:40.797Z,20.49
2018-06-10T22:40:09.403Z,20.29
2018-06-10T22:42:37.993Z,20.32
2018-06-10T22:45:07.573Z,20.22
2018-06-10T22:47:36.183Z,20.11
2018-06-10T22:50:04.798Z,19.99
2018-06-10T22:52:35.451Z,19.92
2018-06-10T22:55:04.316Z,19.81
2018-06-10T22:57:33.263Z,19.71
2018-06-10T23:00:02.186Z,19.67
2018-06-10T23:02:30.944Z,19.59
2018-06-10T23:04:59.619Z,19.55
2018-06-10T23:07:28.298Z,19.46
2018-06-10T23:09:56.925Z,19.34
2018-06-10T23:12:25.606Z,19.20
2018-06-10T23:14:54.483Z,19.06
2018-06-10T23:17:23.414Z,19.00
2018-06-10T23:19:52.283Z,18.98
2018-06-10T23:22:21.168Z,18.89
2018-06-10T23:24:50.046Z,19.14
2018-06-10T23:27:18.907Z,19.36
2018-06-10T23:29:47.798Z,19.28
2018-06-10T23:32:17.676Z,19.14
2018-06-10T23:34:46.306Z,19.03
2018-06-10T23:37:14.958Z,18.94
2018-06-10T23:39:43.519Z,18.88
2018-06-10T23:42:12.263Z,18.82
2018-06-10T23:44:41.104Z,18.80
2018-06-10T23:47:09.975Z,19.05
2018-06-10T23:49:38.840Z,18.90
2018-06-10T23:52:07.628Z,18.86
2018-06-10T23:54:36.295Z,18.80
2018-06-10T23:57:04.896Z,18.74
2018-06-10T23:59:33.500Z,18.74
